createdAt,value
2022-11-26T00:01:47.980Z,113.90
2022-11-26T00:05:15.890Z,116.20
2022-11-26T00:08:44.892Z,122.30
2022-11-26T00:12:21.185Z,111.60
2022-11-26T00:15:49.290Z,135.00
2022-11-26T00:19:16.023Z,127.20
2022-11-26T00:22:45.600Z,120.70
2022-11-26T00:26:17.923Z,207.00
2022-11-26T00:29:44.868Z,142.90
2022-11-26T00:33:11.861Z,149.40
2022-11-26T00:36:38.669Z,144.10
2022-11-26T00:40:05.380Z,130.70
2022-11-26T00:43:32.160Z,167.10
2022-11-26T00:46:58.919Z,184.10
2022-11-26T00:50:28.700Z,154.40
2022-11-26T00:53:57.713Z,127.20
2022-11-26T00:57:24.238Z,114.40
2022-11-26T01:00:52.940Z,141.90
2022-11-26T01:04:19.796Z,125.80
2022-11-26T01:07:50.655Z,121.50
2022-11-26T01:11:21.524Z,125.70
2022-11-26T01:14:49.358Z,126.60
2022-11-26T01:18:19.160Z,125.40
2022-11-26T01:21:47.150Z,128.70
2022-11-26T01:25:13.935Z,122.10
2022-11-26T01:28:40.422Z,122.70
2022-11-26T01:32:07.503Z,125.20
2022-11-26T01:35:35.012Z,117.60
2022-11-26T01:39:04.403Z,134.90
2022-11-26T01:42:45.142Z,127.60
2022-11-26T01:46:17.568Z,119.30
2022-11-26T01:49:44.268Z,112.00
2022-11-26T01:53:15.760Z,131.30
2022-11-26T01:56:46.976Z,149.60
2022-11-26T02:00:16.544Z,146.00
2022-11-26T02:03:50.464Z,128.10
2022-11-26T02:07:17.067Z,113.30
2022-11-26T02:10:45.021Z,112.60
2022-11-26T02:14:15.494Z,124.30
2022-11-26T02:17:46.104Z,128.80
2022-11-26T02:21:20.164Z,132.50
2022-11-26T02:24:54.747Z,131.30
2022-11-26T02:28:58.961Z,136.90
2022-11-26T02:32:30.259Z,138.20
2022-11-26T02:36:02.020Z,129.00
2022-11-26T02:39:32.253Z,128.50
2022-11-26T02:42:59.277Z,127.80
2022-11-26T02:46:26.013Z,123.10
2022-11-26T02:49:54.705Z,117.60
2022-11-26T02:53:25.134Z,130.30
2022-11-26T02:56:53.277Z,129.60
2022-11-26T03:00:22.091Z,127.80
2022-11-26T03:03:54.255Z,143.50
2022-11-26T03:07:21.722Z,135.50
2022-11-26T03:10:48.534Z,138.60
2022-11-26T03:14:14.984Z,155.40
2022-11-26T03:17:41.878Z,142.30
2022-11-26T03:21:08.885Z,148.50
2022-11-26T03:24:35.988Z,147.70
2022-11-26T03:28:03.247Z,160.30
2022-11-26T03:31:30.593Z,154.00
2022-11-26T03:34:57.409Z,178.80
2022-11-26T03:38:23.799Z,165.60
2022-11-26T03:41:50.582Z,185.00
2022-11-26T03:45:18.321Z,167.50
2022-11-26T03:48:45.257Z,225.10
2022-11-26T03:52:11.876Z,225.30
2022-11-26T03:55:39.024Z,157.50
2022-11-26T03:59:05.921Z,170.50
2022-11-26T04:02:33.130Z,183.00
2022-11-26T04:06:03.357Z,184.50
2022-11-26T04:09:33.085Z,195.80
2022-11-26T04:13:00.696Z,184.20
2022-11-26T04:16:27.899Z,202.70
2022-11-26T04:19:54.488Z,139.80
2022-11-26T04:23:21.182Z,131.50
2022-11-26T04:26:47.877Z,153.70
2022-11-26T04:30:17.081Z,141.00
2022-11-26T04:33:44.046Z,153.60
2022-11-26T04:37:10.899Z,178.60
2022-11-26T04:40:38.370Z,188.60
2022-11-26T04:44:05.280Z,148.60
2022-11-26T04:47:31.955Z,137.60
2022-11-26T04:50:59.103Z,143.40
2022-11-26T04:54:26.164Z,148.70
2022-11-26T04:57:52.785Z,117.90
2022-11-26T05:01:19.491Z,173.40
2022-11-26T05:04:46.686Z,257.00
2022-11-26T05:08:13.553Z,239.60
2022-11-26T05:11:40.260Z,176.40
2022-11-26T05:15:08.716Z,175.80
2022-11-26T05:18:35.502Z,180.80
2022-11-26T05:22:02.249Z,180.00
2022-11-26T05:25:29.609Z,139.90
2022-11-26T05:28:57.098Z,129.60
2022-11-26T05:32:24.253Z,118.00
2022-11-26T05:35:52.660Z,190.40
2022-11-26T05:39:19.372Z,158.50
2022-11-26T05:42:45.822Z,115.10
2022-11-26T05:46:13.348Z,209.20
2022-11-26T05:49:40.251Z,103.50
2022-11-26T05:53:07.073Z,108.50
2022-11-26T05:56:34.304Z,191.50
2022-11-26T06:00:00.785Z,142.80
2022-11-26T06:03:29.656Z,153.80
2022-11-26T06:06:56.743Z,107.70
2022-11-26T06:10:23.962Z,106.60
2022-11-26T06:13:50.896Z,106.50
2022-11-26T06:17:19.649Z,118.40
2022-11-26T06:20:46.652Z,142.80
2022-11-26T06:24:14.111Z,131.50
2022-11-26T06:27:45.258Z,140.70
2022-11-26T06:31:14.807Z,135.10
2022-11-26T06:34:43.873Z,116.80
2022-11-26T06:38:11.252Z,130.20
2022-11-26T06:41:38.354Z,117.40
2022-11-26T06:45:05.470Z,112.90
2022-11-26T06:48:32.726Z,134.50
2022-11-26T06:51:59.664Z,122.30
2022-11-26T06:55:26.588Z,121.90
2022-11-26T06:58:55.356Z,124.70
2022-11-26T07:02:22.276Z,130.00
2022-11-26T07:05:49.085Z,123.20
2022-11-26T07:09:16.804Z,134.80
2022-11-26T07:12:43.494Z,143.00
2022-11-26T07:16:13.350Z,137.70
2022-11-26T07:19:41.767Z,127.40
2022-11-26T07:23:08.441Z,137.50
2022-11-26T07:26:39.827Z,135.70
2022-11-26T07:30:19.708Z,161.20
2022-11-26T07:33:55.664Z,153.50
2022-11-26T07:40:57.442Z,191.60
2022-11-26T07:47:50.829Z,166.90
2022-11-26T07:51:25.570Z,201.50
2022-11-26T07:54:53.224Z,163.80
2022-11-26T07:58:21.654Z,186.60
2022-11-26T08:01:49.110Z,164.90
2022-11-26T08:05:19.967Z,177.30
2022-11-26T08:08:47.570Z,223.60
2022-11-26T08:12:17.350Z,152.00
2022-11-26T08:15:45.071Z,179.10
2022-11-26T08:19:15.245Z,165.60
2022-11-26T08:22:42.470Z,153.50
2022-11-26T08:26:23.909Z,151.70
2022-11-26T08:29:55.219Z,180.70
2022-11-26T08:33:22.642Z,167.30
2022-11-26T08:36:49.507Z,149.90
2022-11-26T08:40:18.121Z,185.90
2022-11-26T08:44:05.826Z,166.50
2022-11-26T08:47:33.187Z,165.80
2022-11-26T08:51:03.614Z,171.20
2022-11-26T08:54:35.197Z,168.80
2022-11-26T08:58:04.313Z,184.30
2022-11-26T09:01:33.582Z,230.70
2022-11-26T09:05:01.548Z,182.50
2022-11-26T09:08:28.736Z,198.40
2022-11-26T09:11:59.383Z,179.90
2022-11-26T09:15:26.502Z,154.80
2022-11-26T09:18:56.521Z,162.10
2022-11-26T09:22:25.073Z,146.10
2022-11-26T09:25:54.268Z,156.70
2022-11-26T09:29:22.705Z,163.80
2022-11-26T09:32:49.859Z,158.90
2022-11-26T09:36:18.555Z,164.50
2022-11-26T09:39:45.878Z,178.60
2022-11-26T09:43:24.482Z,174.90
2022-11-26T09:47:15.642Z,155.00
2022-11-26T09:50:43.794Z,171.00
2022-11-26T09:54:18.131Z,167.40
2022-11-26T09:57:52.801Z,164.80
2022-11-26T10:01:24.599Z,173.40
2022-11-26T10:04:54.634Z,153.60
2022-11-26T10:08:46.226Z,169.80
2022-11-26T10:12:26.479Z,162.10
2022-11-26T10:16:06.773Z,158.60
2022-11-26T10:19:44.023Z,154.60
2022-11-26T10:23:24.108Z,145.30
2022-11-26T10:26:51.667Z,136.00
2022-11-26T10:30:24.910Z,132.10
2022-11-26T10:37:23.431Z,133.50
2022-11-26T10:40:50.411Z,148.10
2022-11-26T10:44:40.568Z,130.80
2022-11-26T10:48:23.850Z,120.80
2022-11-26T10:52:01.049Z,113.70
2022-11-26T10:55:31.383Z,116.60
2022-11-26T10:59:02.926Z,115.10
2022-11-26T11:02:37.433Z,111.50
2022-11-26T11:06:36.402Z,110.10
2022-11-26T11:10:20.637Z,102.80
2022-11-26T11:13:48.486Z,105.20
2022-11-26T11:17:36.263Z,94.10
2022-11-26T11:21:04.726Z,106.90
2022-11-26T11:24:32.895Z,100.80
2022-11-26T11:28:10.480Z,95.60
2022-11-26T11:31:48.408Z,102.60
2022-11-26T11:35:31.352Z,105.40
2022-11-26T11:39:00.186Z,98.20
2022-11-26T11:42:29.942Z,101.90
2022-11-26T11:46:10.927Z,103.80
2022-11-26T11:50:00.607Z,97.20
2022-11-26T11:53:38.035Z,93.80
2022-11-26T11:57:15.102Z,95.90
2022-11-26T12:00:48.765Z,96.40
2022-11-26T12:04:39.568Z,96.00
2022-11-26T12:08:19.121Z,96.60
2022-11-26T12:11:55.984Z,91.70
2022-11-26T12:15:29.902Z,85.50
2022-11-26T12:19:05.452Z,82.80
2022-11-26T12:22:38.512Z,82.90
2022-11-26T12:26:14.859Z,87.60
2022-11-26T12:29:48.722Z,95.70
2022-11-26T12:33:21.001Z,90.70
2022-11-26T12:36:54.125Z,90.40
2022-11-26T12:40:34.679Z,88.30
2022-11-26T12:44:16.210Z,82.10
2022-11-26T12:47:51.331Z,83.90
2022-11-26T12:51:24.847Z,76.70
2022-11-26T12:58:25.450Z,77.80
2022-11-26T13:01:55.370Z,80.20
2022-11-26T13:05:29.507Z,73.40
2022-11-26T13:09:05.816Z,78.20
2022-11-26T13:12:43.003Z,73.90
2022-11-26T13:16:24.002Z,74.30
2022-11-26T13:19:55.346Z,85.60
2022-11-26T13:23:49.794Z,79.20
2022-11-26T13:27:35.764Z,108.50
2022-11-26T13:31:22.666Z,91.70
2022-11-26T13:35:14.526Z,77.90
2022-11-26T13:38:58.515Z,84.70
2022-11-26T13:42:46.104Z,121.00
2022-11-26T13:46:22.364Z,112.40
2022-11-26T13:49:54.589Z,88.00
2022-11-26T13:53:27.283Z,81.30
2022-11-26T13:57:02.794Z,78.30
2022-11-26T14:00:34.098Z,77.10
2022-11-26T14:04:01.140Z,73.40
2022-11-26T14:07:28.898Z,75.20
2022-11-26T14:10:56.604Z,70.80
2022-11-26T14:14:39.453Z,74.40
2022-11-26T14:18:07.132Z,65.90
2022-11-26T14:21:54.678Z,75.10
2022-11-26T14:25:41.327Z,69.30
2022-11-26T14:29:22.128Z,69.10
2022-11-26T14:32:54.854Z,72.70
2022-11-26T14:36:26.560Z,74.20
2022-11-26T14:40:06.451Z,65.90
2022-11-26T14:43:33.472Z,76.50
2022-11-26T14:47:16.761Z,81.00
2022-11-26T14:50:47.899Z,93.50
2022-11-26T14:54:24.052Z,98.90
2022-11-26T14:57:57.530Z,100.50
2022-11-26T15:05:00.684Z,94.00
2022-11-26T15:08:30.303Z,85.50
2022-11-26T15:12:05.163Z,94.50
2022-11-26T15:15:31.927Z,93.70
2022-11-26T15:18:59.450Z,99.10
2022-11-26T15:22:34.384Z,92.80
2022-11-26T15:26:02.055Z,96.80
2022-11-26T15:29:36.638Z,90.10
2022-11-26T15:33:06.394Z,99.20
2022-11-26T15:36:35.401Z,99.70
2022-11-26T15:40:24.888Z,108.70
2022-11-26T15:43:55.475Z,102.10
2022-11-26T15:47:27.202Z,101.40
2022-11-26T15:50:56.447Z,100.50
2022-11-26T15:54:43.538Z,94.00
2022-11-26T15:58:21.581Z,118.00
2022-11-26T16:05:29.096Z,114.30
2022-11-26T16:09:05.480Z,97.70
2022-11-26T16:12:35.344Z,100.60
2022-11-26T16:16:07.990Z,106.90
2022-11-26T16:19:36.008Z,105.30
2022-11-26T16:23:03.266Z,98.60
2022-11-26T16:26:30.996Z,100.60
2022-11-26T16:29:58.004Z,123.10
2022-11-26T16:33:24.846Z,118.30
2022-11-26T16:36:52.671Z,120.70
2022-11-26T16:40:20.713Z,126.90
2022-11-26T16:43:47.968Z,116.60
2022-11-26T16:47:23.909Z,111.40
2022-11-26T16:50:50.929Z,111.70
2022-11-26T16:54:25.246Z,116.40
2022-11-26T16:57:57.117Z,128.80
2022-11-26T17:01:25.100Z,139.20
2022-11-26T17:04:53.775Z,156.30
2022-11-26T17:08:21.415Z,136.40
2022-11-26T17:11:49.442Z,133.70
2022-11-26T17:15:16.718Z,127.70
2022-11-26T17:18:43.797Z,121.40
2022-11-26T17:22:11.791Z,127.00
2022-11-26T17:25:42.095Z,153.50
2022-11-26T17:29:11.664Z,167.50
2022-11-26T17:32:41.427Z,145.80
2022-11-26T17:36:16.777Z,126.50
2022-11-26T17:39:44.524Z,120.70
2022-11-26T17:43:13.519Z,119.00
2022-11-26T17:47:09.107Z,144.70
2022-11-26T17:50:30.204Z,113.70
2022-11-26T17:53:57.004Z,103.40
2022-11-26T17:57:25.732Z,109.50
2022-11-26T18:00:53.321Z,95.40
2022-11-26T18:04:20.859Z,104.80
2022-11-26T18:07:47.764Z,109.20
2022-11-26T18:11:16.236Z,114.50
2022-11-26T18:14:45.211Z,107.10
2022-11-26T18:18:12.065Z,102.20
2022-11-26T18:21:40.039Z,106.90
2022-11-26T18:25:08.119Z,108.90
2022-11-26T18:28:38.179Z,106.50
2022-11-26T18:32:21.644Z,107.20
2022-11-26T18:35:51.918Z,111.80
2022-11-26T18:39:18.831Z,138.80
2022-11-26T18:42:47.047Z,136.20
2022-11-26T18:46:19.815Z,160.90
2022-11-26T18:49:49.843Z,154.40
2022-11-26T18:53:19.389Z,128.30
2022-11-26T18:56:46.446Z,109.70
2022-11-26T19:00:19.697Z,106.90
2022-11-26T19:03:48.384Z,111.50
2022-11-26T19:07:17.291Z,109.90
2022-11-26T19:10:44.248Z,116.20
2022-11-26T19:14:14.307Z,123.50
2022-11-26T19:17:41.252Z,125.90
2022-11-26T19:21:09.180Z,119.50
2022-11-26T19:24:41.058Z,107.20
2022-11-26T19:28:10.156Z,111.20
2022-11-26T19:31:40.267Z,104.60
2022-11-26T19:35:07.991Z,117.80
2022-11-26T19:38:34.894Z,134.10
2022-11-26T19:42:01.513Z,224.40
2022-11-26T19:45:28.754Z,217.80
2022-11-26T19:48:56.864Z,225.20
2022-11-26T19:52:26.194Z,198.30
2022-11-26T19:56:02.677Z,140.00
2022-11-26T19:59:29.207Z,142.80
2022-11-26T20:03:00.657Z,139.10
2022-11-26T20:06:32.351Z,144.20
2022-11-26T20:10:08.010Z,126.50
2022-11-26T20:13:36.553Z,129.50
2022-11-26T20:17:03.348Z,106.10
2022-11-26T20:20:30.094Z,112.50
2022-11-26T20:23:59.136Z,108.50
2022-11-26T20:27:26.251Z,110.20
2022-11-26T20:30:53.332Z,105.20
2022-11-26T20:34:22.448Z,122.30
2022-11-26T20:37:51.556Z,106.70
2022-11-26T20:41:21.270Z,136.70
2022-11-26T20:44:50.269Z,155.10
2022-11-26T20:48:19.071Z,190.70
2022-11-26T20:51:46.295Z,163.40
2022-11-26T20:55:14.098Z,118.10
2022-11-26T20:59:01.228Z,120.20
2022-11-26T21:02:29.385Z,112.50
2022-11-26T21:05:59.977Z,107.00
2022-11-26T21:09:26.694Z,110.90
2022-11-26T21:13:00.449Z,108.90
2022-11-26T21:16:27.737Z,116.80
2022-11-26T21:19:58.359Z,109.50
2022-11-26T21:23:26.811Z,128.80
2022-11-26T21:26:53.452Z,118.40
2022-11-26T21:30:22.860Z,127.70
2022-11-26T21:33:59.343Z,131.80
2022-11-26T21:37:26.715Z,138.60
2022-11-26T21:40:54.619Z,138.20
2022-11-26T21:44:21.340Z,130.90
2022-11-26T21:47:52.559Z,124.20
2022-11-26T21:51:26.045Z,107.60
2022-11-26T21:54:58.429Z,110.40
2022-11-26T21:58:32.697Z,107.40
2022-11-26T22:01:59.969Z,115.80
2022-11-26T22:05:26.602Z,116.50
2022-11-26T22:09:01.940Z,115.80
2022-11-26T22:12:30.135Z,110.80
2022-11-26T22:15:56.995Z,109.70
2022-11-26T22:19:32.468Z,104.50
2022-11-26T22:23:02.129Z,109.80
2022-11-26T22:26:30.116Z,102.50
2022-11-26T22:30:00.491Z,102.40
2022-11-26T22:33:26.942Z,99.10
2022-11-26T22:36:53.434Z,102.10
2022-11-26T22:40:20.087Z,95.50
2022-11-26T22:43:47.189Z,102.30
2022-11-26T22:47:14.192Z,117.90
2022-11-26T22:50:40.936Z,113.30
2022-11-26T22:54:11.664Z,114.30
2022-11-26T22:57:39.797Z,118.30
2022-11-26T23:01:09.344Z,116.10
2022-11-26T23:04:38.823Z,111.90
2022-11-26T23:08:06.412Z,106.50
2022-11-26T23:11:36.316Z,103.20
2022-11-26T23:15:06.420Z,110.80
2022-11-26T23:18:33.237Z,103.80
2022-11-26T23:22:00.009Z,102.10
2022-11-26T23:25:26.763Z,111.80
2022-11-26T23:28:53.399Z,118.50
2022-11-26T23:32:20.638Z,131.10
2022-11-26T23:35:47.390Z,114.50
2022-11-26T23:39:16.443Z,115.90
2022-11-26T23:42:43.972Z,109.20
2022-11-26T23:46:14.518Z,119.20
2022-11-26T23:49:41.294Z,103.80
2022-11-26T23:53:07.983Z,116.80
2022-11-26T23:56:50.316Z,121.70
